Aeroporto :
LOGIN :

Iscrizione | Disclaimer

   EN    FR    IT 

 










Sommario :    VFR   VFR Marginale   IFR   IFR Intensivo   IFR Molto Intensivo
Visibilità : 
Base nubi : 
>= 8 km
>= 3000ft
5 / 8 km
1000 / 3000 ft
1500m / 5 km
500 / 1000 ft
800 / 1500m
200 / 500 ft
< 800m
< 200 ft
Simboli :   Temporali  Nebbia  Neve Forte  Precipitazioni Forti  Vento > 20 kt
SIGMETs :   Varie  Temporali  Ghiacco  Turbolenza  Onda orograficha  Ceneri Vulcaniche






- Altitudine del aeroporto : 1299 ft


EDTY - Adolf Würth

ULTIMO METAR :
  • 220220Z AUTO 26009KT 8000 // OVC006/// 01/00 Q1030

METARs OBSOLETI :
  • 220150Z AUTO 25009KT 9000 // OVC005/// 01/00 Q1030
  • 220120Z AUTO 25009KT 9999 // OVC005/// 01/00 Q1030
  • 220050Z AUTO 25008KT 9999 // OVC005/// 01/00 Q1030
  • 220020Z AUTO 25009KT 9999 // OVC006/// 01/00 Q1030
  • 212350Z AUTO 24008KT 9999 // OVC006/// 01/00 Q1030

TAF TAF EDTY
Valido dal 21 a 18 ore il 22 a 03 ore UTC


211700Z 2118/2203 23008KT 8000 SCT012 BKN020
TEMPO 2118/2120 4000 -SN BKN012
BECMG 2120/2122 3500 -SN BKN008
PROB30
TEMPO 2120/2203 1400 SN



MetMap, La meteo Aeronautica in un colpo d'occhio ! - Copyright ORBIFLY Dicembre 2007 - Disclaimer

ORBIFLY MET'MAP TEAM :

Programmazione e sviluppo : Alexandra Zaïnal
Concezione : Baudouin d'Aumeries
Aiuto per la programmazione : Marc-Olivier Méhu
Supporto tecnico e logistico : Manuel Goepfert
Aiuto per la traduzione : Arnaldo La Scala

Contatto : metmap@orbifly.com




FONTI E CREDITI :

   NOAA